Time;durP1;ratioP1;P1;durP2;ratioP2;P2;SDS_P1;SDS_P2;PMS_P1;PMS_P2;Temp;Humidity;BMP_temperature;BMP_pressure;BME280_temperature;BME280_humidity;BME280_pressure;Samples;Min_cycle;Max_cycle;Signal;HPM_P1;HPM_P2
2022/04/20 00:00:36;;;;;;;2.85;2.25;;;16.70;59.40;;;;;;5075864;28;20056;-79
2022/04/20 00:03:03;;;;;;;3.72;2.42;;;16.70;59.40;;;;;;5051322;28;20024;-79
2022/04/20 00:05:33;;;;;;;2.60;2.10;;;16.60;59.40;;;;;;5061432;28;20499;-77
2022/04/20 00:08:05;;;;;;;2.78;2.00;;;16.60;59.40;;;;;;5084511;28;20075;-78
2022/04/20 00:10:31;;;;;;;3.88;2.30;;;16.50;59.40;;;;;;5066345;28;20468;-78
2022/04/20 00:12:58;;;;;;;3.15;2.10;;;16.50;59.40;;;;;;5075167;28;20041;-79
2022/04/20 00:15:24;;;;;;;3.10;2.40;;;16.50;59.50;;;;;;5091729;28;20120;-78
2022/04/20 00:17:50;;;;;;;3.53;2.40;;;16.40;59.50;;;;;;5065245;28;20044;-78
2022/04/20 00:20:17;;;;;;;2.55;2.08;;;16.40;59.50;;;;;;5061120;28;20074;-78
2022/04/20 00:22:43;;;;;;;3.50;2.20;;;16.40;59.50;;;;;;5097061;28;20106;-78
2022/04/20 00:25:09;;;;;;;3.45;2.20;;;16.40;59.50;;;;;;5099704;28;20076;-78
2022/04/20 00:27:36;;;;;;;3.22;2.38;;;16.30;59.50;;;;;;5072163;28;20558;-77
2022/04/20 00:30:06;;;;;;;3.00;2.13;;;16.30;59.50;;;;;;5077745;28;20032;-79
2022/04/20 00:32:32;;;;;;;3.65;2.60;;;16.30;59.60;;;;;;5080198;28;20020;-78
2022/04/20 00:34:57;;;;;;;3.15;2.10;;;16.30;59.70;;;;;;5084777;28;20024;-80
2022/04/20 00:37:24;;;;;;;3.05;2.15;;;16.20;59.60;;;;;;5055520;28;20050;-78
2022/04/20 00:39:49;;;;;;;2.78;2.20;;;16.20;59.60;;;;;;5084718;28;20024;-78
2022/04/20 00:42:15;;;;;;;3.83;2.47;;;16.20;59.60;;;;;;5080253;28;20024;-78
2022/04/20 00:44:42;;;;;;;2.03;1.83;;;16.10;59.60;;;;;;5094764;28;21856;-78
2022/04/20 00:47:10;;;;;;;3.53;2.45;;;16.10;59.70;;;;;;5072314;28;20377;-78
2022/04/20 00:49:37;;;;;;;3.35;2.38;;;16.10;59.70;;;;;;5071957;28;20016;-80
2022/04/20 00:52:04;;;;;;;2.85;2.10;;;16.00;59.80;;;;;;5078410;28;20032;-78
2022/04/20 00:54:30;;;;;;;3.38;2.28;;;16.00;59.80;;;;;;5083552;28;20082;-78
2022/04/20 00:56:57;;;;;;;2.90;2.20;;;15.90;59.70;;;;;;5078640;28;20107;-81
2022/04/20 00:59:29;;;;;;;3.45;2.00;;;15.90;59.70;;;;;;5087680;28;20024;-79
2022/04/20 01:01:55;;;;;;;3.15;2.15;;;15.90;59.70;;;;;;5067623;28;20035;-80
2022/04/20 01:04:22;;;;;;;2.58;2.00;;;15.90;59.80;;;;;;5068777;28;20510;-79
2022/04/20 01:07:11;;;;;;;3.00;2.10;;;15.80;59.80;;;;;;5068344;28;20391;-80
2022/04/20 01:09:54;;;;;;;3.33;2.15;;;15.80;59.90;;;;;;5083812;28;20051;-80
2022/04/20 01:12:56;;;;;;;2.83;2.20;;;15.80;59.90;;;;;;5068557;28;20035;-80
2022/04/20 01:15:51;;;;;;;2.83;1.92;;;15.70;59.90;;;;;;5034884;28;20128;-77
2022/04/20 01:18:49;;;;;;;3.25;2.00;;;15.70;59.90;;;;;;5073748;28;20060;-77
2022/04/20 01:21:36;;;;;;;3.33;2.40;;;15.60;60.00;;;;;;5084224;28;20479;-78
2022/04/20 01:24:31;;;;;;;3.58;2.10;;;15.60;60.10;;;;;;5079010;28;20037;-77
2022/04/20 01:27:14;;;;;;;3.47;2.10;;;15.50;60.10;;;;;;5065367;28;20051;-78
2022/04/20 01:30:00;;;;;;;3.08;1.98;;;15.50;60.10;;;;;;5079475;28;20042;-78
2022/04/20 01:32:46;;;;;;;3.33;2.17;;;15.50;60.20;;;;;;5081711;28;20036;-80
2022/04/20 01:35:20;;;;;;;2.97;2.08;;;15.40;60.20;;;;;;5071433;28;20024;-80
2022/04/20 01:37:45;;;;;;;3.47;2.58;;;15.40;60.20;;;;;;5056933;28;20039;-80
2022/04/20 01:40:11;;;;;;;3.40;2.28;;;15.40;60.20;;;;;;5066540;28;20035;-81
2022/04/20 01:42:37;;;;;;;3.20;2.10;;;15.40;60.30;;;;;;5091483;28;20452;-80
2022/04/20 01:45:06;;;;;;;3.97;2.38;;;15.30;60.20;;;;;;5096850;28;20506;-80
2022/04/20 01:47:56;;;;;;;1.98;1.77;;;15.30;60.30;;;;;;5088646;28;20101;-76
2022/04/20 01:53:55;;;;;;;4.43;2.10;;;15.30;60.20;;;;;;5082028;28;20028;-79
2022/04/20 01:56:47;;;;;;;2.55;1.98;;;15.20;60.20;;;;;;5097751;28;20040;-81
2022/04/20 01:59:29;;;;;;;2.35;1.95;;;15.10;60.20;;;;;;5098662;28;20039;-79
2022/04/20 02:04:48;;;;;;;2.28;1.80;;;15.10;60.30;;;;;;5060202;28;20123;-80
2022/04/20 02:07:14;;;;;;;2.90;2.10;;;15.10;60.40;;;;;;5083087;28;20107;-79
2022/04/20 02:09:45;;;;;;;2.97;2.08;;;15.00;60.30;;;;;;5078138;28;20077;-79
2022/04/20 02:12:14;;;;;;;3.70;2.35;;;15.00;60.30;;;;;;5095164;28;20483;-79
2022/04/20 02:15:09;;;;;;;2.80;2.10;;;15.00;60.30;;;;;;5071197;28;20021;-79
2022/04/20 02:17:54;;;;;;;2.97;2.10;;;14.90;60.20;;;;;;5076331;28;20059;-80
2022/04/20 02:20:29;;;;;;;;;;;14.90;60.20;;;;;;5045126;28;20028;-79
2022/04/20 02:22:55;;;;;;;2.78;2.10;;;14.80;60.30;;;;;;5089129;28;20010;-79
2022/04/20 02:25:24;;;;;;;2.67;2.00;;;14.80;60.20;;;;;;5066774;28;20036;-79
2022/04/20 02:27:50;;;;;;;4.22;2.05;;;14.80;60.30;;;;;;5084582;28;20115;-79
2022/04/20 02:30:16;;;;;;;2.65;1.98;;;14.70;60.30;;;;;;5061809;28;20136;-79
2022/04/20 02:32:42;;;;;;;3.53;2.25;;;14.70;60.40;;;;;;5055137;28;20029;-80
2022/04/20 02:35:08;;;;;;;4.22;2.40;;;14.70;60.40;;;;;;5041590;28;20032;-80
2022/04/20 02:37:35;;;;;;;2.75;2.10;;;14.70;60.30;;;;;;5082853;28;20040;-80
2022/04/20 02:40:01;;;;;;;2.72;2.10;;;14.70;60.40;;;;;;5057404;28;20512;-79
2022/04/20 02:42:27;;;;;;;2.88;2.05;;;14.60;60.30;;;;;;5082369;28;20107;-80
2022/04/20 02:44:53;;;;;;;2.97;1.90;;;14.60;60.40;;;;;;5046514;28;20120;-79
2022/04/20 02:47:19;;;;;;;2.45;1.88;;;14.60;60.40;;;;;;5090274;28;20028;-79
2022/04/20 02:49:44;;;;;;;2.67;2.30;;;14.60;60.50;;;;;;5074466;28;20446;-80
2022/04/20 02:52:11;;;;;;;3.38;2.20;;;14.50;60.40;;;;;;5073071;28;20051;-80
2022/04/20 02:54:36;;;;;;;2.67;1.90;;;14.50;60.40;;;;;;5089294;28;20036;-80
2022/04/20 02:57:03;;;;;;;2.72;2.03;;;14.50;60.50;;;;;;5080996;28;20028;-79
2022/04/20 02:59:29;;;;;;;2.42;1.95;;;14.40;60.50;;;;;;5088883;28;20039;-79
2022/04/20 03:01:59;;;;;;;2.88;1.95;;;14.40;60.60;;;;;;5071872;28;20060;-80
2022/04/20 03:04:25;;;;;;;2.70;2.00;;;14.40;60.60;;;;;;5069619;28;20452;-79
2022/04/20 03:06:50;;;;;;;2.72;2.00;;;14.40;60.50;;;;;;5103147;28;20027;-79
2022/04/20 03:09:27;;;;;;;2.97;2.20;;;14.30;60.50;;;;;;5078562;28;20036;-79
2022/04/20 03:11:53;;;;;;;2.30;1.67;;;14.30;60.40;;;;;;5088070;28;20055;-79
2022/04/20 03:14:19;;;;;;;2.65;1.98;;;14.30;60.50;;;;;;5102017;28;20119;-80
2022/04/20 03:16:46;;;;;;;2.70;2.03;;;14.30;60.50;;;;;;5084171;28;20090;-81
2022/04/20 03:19:14;;;;;;;2.28;1.88;;;14.30;60.50;;;;;;5070436;28;20036;-81
2022/04/20 03:21:39;;;;;;;3.03;1.80;;;14.20;60.40;;;;;;5057277;28;20047;-80
2022/04/20 03:24:05;;;;;;;2.60;1.90;;;14.20;60.60;;;;;;5091933;28;20035;-79
2022/04/20 03:27:00;;;;;;;2.55;1.80;;;14.10;60.40;;;;;;5052036;28;20129;-78
2022/04/20 03:29:34;;;;;;;3.13;2.08;;;14.10;60.30;;;;;;5086757;28;20059;-79
2022/04/20 03:32:11;;;;;;;2.85;2.15;;;14.10;60.50;;;;;;5054214;28;20062;-79
2022/04/20 03:34:39;;;;;;;2.17;1.80;;;14.10;60.40;;;;;;5073775;28;20025;-79
2022/04/20 03:37:06;;;;;;;3.20;2.10;;;14.10;60.40;;;;;;5085201;28;20536;-80
2022/04/20 03:39:33;;;;;;;2.05;1.83;;;14.00;60.30;;;;;;5063898;28;20031;-81
2022/04/20 03:41:59;;;;;;;2.75;1.83;;;14.00;60.40;;;;;;5085703;28;20032;-81
2022/04/20 03:44:26;;;;;;;2.22;1.70;;;14.00;60.40;;;;;;5072078;28;20030;-79
2022/04/20 03:46:52;;;;;;;3.10;2.00;;;13.90;60.30;;;;;;5091241;28;20047;-79
2022/04/20 03:49:18;;;;;;;2.08;1.73;;;13.90;60.30;;;;;;5055127;28;20044;-79
2022/04/20 03:51:45;;;;;;;3.15;1.75;;;13.90;60.30;;;;;;5073534;28;20106;-80
2022/04/20 03:54:13;;;;;;;2.03;1.73;;;13.90;60.30;;;;;;5060809;28;20504;-80
2022/04/20 03:59:23;;;;;;;2.58;1.83;;;13.80;60.20;;;;;;5086760;28;20051;-78
2022/04/20 04:01:51;;;;;;;2.67;1.90;;;13.80;60.20;;;;;;5072177;28;20024;-79
2022/04/20 04:04:17;;;;;;;3.03;2.00;;;13.80;60.20;;;;;;5072273;28;20036;-80
2022/04/20 04:06:44;;;;;;;2.50;1.73;;;13.70;60.20;;;;;;5055829;28;20056;-79
2022/04/20 04:09:10;;;;;;;2.13;1.80;;;13.70;60.20;;;;;;5072606;28;20117;-80
2022/04/20 04:11:38;;;;;;;2.63;1.83;;;13.70;60.10;;;;;;5097697;28;20515;-80
2022/04/20 04:14:04;;;;;;;2.60;1.92;;;13.70;60.20;;;;;;5071307;28;20028;-79
2022/04/20 04:16:36;;;;;;;2.20;1.77;;;13.60;60.10;;;;;;5087555;28;20024;-79
2022/04/20 04:19:07;;;;;;;2.45;1.80;;;13.60;60.10;;;;;;5089926;28;20059;-78
2022/04/20 04:21:40;;;;;;;1.90;1.70;;;13.60;60.10;;;;;;5073166;28;20031;-79
2022/04/20 04:24:08;;;;;;;2.65;1.95;;;13.60;60.10;;;;;;5087696;28;20090;-80
2022/04/20 04:26:41;;;;;;;2.40;1.90;;;13.60;60.10;;;;;;5070556;28;20029;-80
2022/04/20 04:29:07;;;;;;;2.08;1.73;;;13.50;60.10;;;;;;5070451;28;20081;-80
2022/04/20 04:31:37;;;;;;;2.47;1.88;;;13.50;60.10;;;;;;5077515;28;20082;-78
2022/04/20 04:34:03;;;;;;;2.55;1.85;;;13.50;60.10;;;;;;5067059;28;20044;-81
2022/04/20 04:36:29;;;;;;;2.83;1.98;;;13.40;60.10;;;;;;5073361;28;20027;-79
2022/04/20 04:38:57;;;;;;;2.47;1.70;;;13.40;60.10;;;;;;5068425;28;20471;-79
2022/04/20 04:41:30;;;;;;;1.90;1.60;;;13.40;60.10;;;;;;5073814;28;20020;-79
2022/04/20 04:43:59;;;;;;;2.88;1.95;;;13.40;60.10;;;;;;5072703;28;20064;-78
2022/04/20 04:49:36;;;;;;;2.15;1.80;;;13.30;60.10;;;;;;5057907;28;20036;-81
2022/04/20 04:52:06;;;;;;;2.15;1.80;;;13.30;60.10;;;;;;5069845;28;20440;-81
2022/04/20 04:54:33;;;;;;;2.28;1.80;;;13.30;60.10;;;;;;5061599;28;20380;-80
2022/04/20 04:57:00;;;;;;;2.10;1.70;;;13.20;60.10;;;;;;5086947;28;20056;-80
2022/04/20 04:59:28;;;;;;;2.13;1.70;;;13.20;60.10;;;;;;5072819;28;20089;-80
2022/04/20 05:01:57;;;;;;;2.08;1.77;;;13.20;60.10;;;;;;5073309;28;20036;-81
2022/04/20 05:04:23;;;;;;;2.17;1.75;;;13.20;60.10;;;;;;5072765;28;20028;-82
2022/04/20 05:06:54;;;;;;;2.88;1.83;;;13.20;60.10;;;;;;5072339;28;20040;-81
2022/04/20 05:09:44;;;;;;;2.13;1.67;;;13.10;60.10;;;;;;5068879;28;20036;-80
2022/04/20 05:12:10;;;;;;;2.58;1.85;;;13.10;60.00;;;;;;5089316;28;20036;-79
2022/04/20 05:14:39;;;;;;;2.13;1.60;;;13.10;60.20;;;;;;5072316;28;20105;-79
2022/04/20 05:17:05;;;;;;;1.70;1.60;;;13.10;60.10;;;;;;5095358;28;20128;-80
2022/04/20 05:19:31;;;;;;;2.28;1.88;;;13.10;60.10;;;;;;5094958;28;20032;-78
2022/04/20 05:22:03;;;;;;;1.98;1.60;;;13.10;60.20;;;;;;5081155;28;20029;-79
2022/04/20 05:24:36;;;;;;;2.83;2.00;;;13.00;60.10;;;;;;5071878;28;20539;-77
2022/04/20 05:27:04;;;;;;;2.38;1.80;;;13.00;60.10;;;;;;5072605;28;20041;-77
2022/04/20 05:29:41;;;;;;;2.88;1.80;;;13.00;60.20;;;;;;5073149;28;20028;-79
2022/04/20 05:32:08;;;;;;;2.17;1.77;;;13.00;60.20;;;;;;5093307;28;20036;-78
2022/04/20 05:34:36;;;;;;;2.13;1.75;;;13.00;60.20;;;;;;5056562;28;20632;-77
2022/04/20 05:42:36;;;;;;;2.42;1.67;;;12.90;60.20;;;;;;5087017;28;20047;-77
2022/04/20 05:45:02;;;;;;;1.70;1.50;;;12.90;60.20;;;;;;5075935;28;20115;-77
2022/04/20 05:47:29;;;;;;;2.28;1.73;;;12.90;60.30;;;;;;5069170;28;20025;-78
2022/04/20 05:49:55;;;;;;;2.10;1.60;;;12.90;60.30;;;;;;5089471;28;20555;-77
2022/04/20 05:52:21;;;;;;;1.95;1.60;;;12.90;60.30;;;;;;5072313;28;20036;-77
2022/04/20 05:54:47;;;;;;;1.95;1.67;;;12.80;60.30;;;;;;5072193;28;20036;-78
2022/04/20 05:57:13;;;;;;;2.13;1.73;;;12.80;60.30;;;;;;5072190;28;20033;-78
2022/04/20 05:59:43;;;;;;;2.30;1.65;;;12.80;60.30;;;;;;5074882;28;20147;-77
2022/04/20 06:02:09;;;;;;;1.80;1.60;;;12.80;60.30;;;;;;5075061;28;20127;-79
2022/04/20 06:04:34;;;;;;;3.22;1.90;;;12.80;60.30;;;;;;5075115;28;20036;-79
2022/04/20 06:07:00;;;;;;;1.75;1.50;;;12.80;60.40;;;;;;5092575;28;20074;-78
2022/04/20 06:09:44;;;;;;;1.88;1.40;;;12.80;60.40;;;;;;5075198;28;20033;-79
2022/04/20 06:12:12;;;;;;;2.20;1.60;;;12.80;60.40;;;;;;5074784;28;20046;-79
2022/04/20 06:15:11;;;;;;;2.05;1.65;;;12.80;60.40;;;;;;5076116;28;20070;-78
2022/04/20 06:17:41;;;;;;;2.30;1.70;;;12.80;60.40;;;;;;5091716;28;20470;-78
2022/04/20 06:20:10;;;;;;;1.70;1.60;;;12.70;60.40;;;;;;5074944;28;20035;-78
2022/04/20 06:22:52;;;;;;;1.90;1.55;;;12.70;60.50;;;;;;5058109;28;20083;-78
2022/04/20 06:25:36;;;;;;;2.42;1.70;;;12.70;60.50;;;;;;5071911;28;20032;-79
2022/04/20 06:28:17;;;;;;;2.00;1.52;;;12.70;60.50;;;;;;5064072;28;20039;-77
2022/04/20 06:31:02;;;;;;;1.90;1.50;;;12.70;60.60;;;;;;5057806;28;20056;-78
2022/04/20 06:33:48;;;;;;;2.17;1.55;;;12.70;60.50;;;;;;5076483;28;20032;-78
2022/04/20 06:36:32;;;;;;;1.85;1.60;;;12.70;60.50;;;;;;5092148;28;20047;-78
2022/04/20 06:39:15;;;;;;;1.90;1.55;;;12.70;60.60;;;;;;5075113;28;20032;-81
2022/04/20 06:41:51;;;;;;;4.15;2.03;;;12.70;60.60;;;;;;5078661;28;20039;-79
2022/04/20 06:44:36;;;;;;;1.90;1.70;;;12.70;60.60;;;;;;5091819;28;20066;-78
2022/04/20 06:47:33;;;;;;;2.30;1.70;;;12.70;60.60;;;;;;5090401;28;20033;-77
2022/04/20 06:50:40;;;;;;;1.55;1.30;;;12.70;60.60;;;;;;5059567;28;20029;-80
2022/04/20 06:58:53;;;;;;;1.73;1.58;;;12.60;60.70;;;;;;5076417;28;20044;-78
2022/04/20 07:01:28;;;;;;;1.90;1.60;;;12.70;60.70;;;;;;5091786;28;20435;-77
2022/04/20 07:04:09;;;;;;;2.22;1.50;;;12.70;60.70;;;;;;5077313;28;20032;-79
2022/04/20 07:07:02;;;;;;;2.28;1.70;;;12.70;60.70;;;;;;5076392;28;20048;-78
2022/04/20 07:09:46;;;;;;;2.67;2.13;;;12.70;60.70;;;;;;5076174;28;20141;-80
2022/04/20 07:12:19;;;;;;;2.28;1.70;;;12.70;60.70;;;;;;5090976;28;20028;-79
2022/04/20 07:14:46;;;;;;;2.33;1.70;;;12.70;60.80;;;;;;5069790;28;20032;-78
2022/04/20 07:17:11;;;;;;;2.70;1.80;;;12.70;60.80;;;;;;5072324;28;20484;-78
2022/04/20 07:19:48;;;;;;;2.22;1.70;;;12.70;60.80;;;;;;5078754;28;20031;-78
2022/04/20 07:22:24;;;;;;;2.05;1.58;;;12.70;60.90;;;;;;5075500;28;20035;-78
2022/04/20 07:25:09;;;;;;;1.58;1.48;;;12.80;60.90;;;;;;5076568;28;20032;-80
2022/04/20 07:27:51;;;;;;;2.00;1.70;;;12.70;60.80;;;;;;5087065;28;20028;-78
2022/04/20 07:30:36;;;;;;;;;;;12.70;61.40;;;;;;5070679;28;20029;-79
2022/04/20 07:33:25;;;;;;;2.08;1.67;;;12.70;60.80;;;;;;5073597;28;19908;-81
2022/04/20 07:36:21;;;;;;;1.70;1.40;;;12.70;60.80;;;;;;5090173;28;20043;-78
2022/04/20 07:39:05;;;;;;;3.38;1.77;;;12.70;60.90;;;;;;5088951;28;20059;-78
2022/04/20 07:42:06;;;;;;;1.60;1.50;;;12.70;60.90;;;;;;5045877;28;20388;-80
2022/04/20 07:44:45;;;;;;;1.48;1.38;;;12.80;61.00;;;;;;5081140;28;20036;-80
2022/04/20 07:47:17;;;;;;;2.35;1.80;;;12.80;61.10;;;;;;5039027;28;20040;-81
2022/04/20 07:53:01;;;;;;;1.93;1.60;;;12.80;61.00;;;;;;5090507;28;20032;-80
2022/04/20 07:55:46;;;;;;;2.35;1.67;;;12.80;61.00;;;;;;5088990;28;20274;-81
2022/04/20 07:58:21;;;;;;;2.13;1.80;;;12.80;61.00;;;;;;5059434;28;20051;-80
2022/04/20 08:01:16;;;;;;;2.05;1.65;;;12.80;61.00;;;;;;5045526;28;20380;-80
2022/04/20 08:03:54;;;;;;;2.58;1.77;;;12.90;61.10;;;;;;5090747;28;20032;-81
2022/04/20 08:06:31;;;;;;;1.73;1.40;;;12.90;61.10;;;;;;5073082;28;20030;-81
2022/04/20 08:08:59;;;;;;;2.65;1.90;;;12.90;61.10;;;;;;5089710;28;20036;-81
2022/04/20 08:11:25;;;;;;;2.50;1.92;;;12.90;61.20;;;;;;5056990;28;20020;-81
2022/04/20 08:14:11;;;;;;;2.83;2.10;;;12.90;61.20;;;;;;5072896;28;20032;-81
2022/04/20 08:16:48;;;;;;;2.72;1.90;;;12.90;61.20;;;;;;5089618;28;20496;-80
2022/04/20 08:19:23;;;;;;;2.38;1.90;;;13.00;61.20;;;;;;5074540;28;20116;-80
2022/04/20 08:22:01;;;;;;;2.22;1.80;;;13.00;61.20;;;;;;5089879;28;20047;-80
2022/04/20 08:24:27;;;;;;;2.40;1.80;;;13.00;61.10;;;;;;5056111;28;20032;-81
2022/04/20 08:26:53;;;;;;;1.83;1.63;;;13.10;61.20;;;;;;5087610;28;20032;-81
2022/04/20 08:29:18;;;;;;;2.33;1.95;;;13.10;61.20;;;;;;5089454;28;20505;-81
2022/04/20 08:31:44;;;;;;;2.28;1.77;;;13.20;61.20;;;;;;5072589;28;20123;-80
2022/04/20 08:34:10;;;;;;;2.60;1.83;;;13.20;61.10;;;;;;5072955;28;20062;-80
2022/04/20 08:36:36;;;;;;;1.95;1.77;;;13.30;61.10;;;;;;5073337;28;20020;-80
2022/04/20 08:39:02;;;;;;;2.33;1.80;;;13.30;61.10;;;;;;5072735;28;20032;-81
2022/04/20 08:41:28;;;;;;;2.58;1.70;;;13.40;61.10;;;;;;5074154;28;20032;-80
2022/04/20 08:43:56;;;;;;;3.45;1.80;;;13.40;61.00;;;;;;5102584;28;20044;-83
2022/04/20 08:46:24;;;;;;;2.85;1.83;;;13.50;61.00;;;;;;5106900;28;20059;-81
2022/04/20 08:48:50;;;;;;;2.30;1.65;;;13.60;61.00;;;;;;5070649;28;20114;-79
2022/04/20 08:51:18;;;;;;;2.40;1.83;;;13.60;60.90;;;;;;5088507;28;20107;-80
2022/04/20 08:53:44;;;;;;;2.28;1.63;;;13.70;60.90;;;;;;5083861;28;20025;-80
2022/04/20 08:58:58;;;;;;;1.63;1.50;;;13.80;60.80;;;;;;5089343;28;20032;-81
2022/04/20 09:01:28;;;;;;;2.17;1.70;;;13.90;60.80;;;;;;5078438;28;20096;-81
2022/04/20 09:03:55;;;;;;;2.35;1.80;;;14.00;60.80;;;;;;5073396;28;20029;-81
2022/04/20 09:06:20;;;;;;;1.75;1.60;;;14.00;60.80;;;;;;5074764;28;20071;-81
2022/04/20 09:08:46;;;;;;;2.25;1.70;;;14.10;60.80;;;;;;5074571;28;20044;-80
2022/04/20 09:11:12;;;;;;;2.22;1.88;;;14.10;60.70;;;;;;5058056;28;20040;-80
2022/04/20 09:13:44;;;;;;;2.92;1.80;;;14.30;60.80;;;;;;5056862;28;20052;-80
2022/04/20 09:16:12;;;;;;;2.28;1.70;;;14.30;60.70;;;;;;5108845;28;20028;-80
2022/04/20 09:18:39;;;;;;;2.20;1.73;;;14.40;60.60;;;;;;5077608;28;20047;-81
2022/04/20 09:21:15;;;;;;;2.50;1.75;;;14.50;60.60;;;;;;5094178;28;20087;-81
2022/04/20 09:23:41;;;;;;;2.10;1.60;;;14.60;60.60;;;;;;5077865;28;20104;-81
2022/04/20 09:26:12;;;;;;;1.95;1.60;;;14.60;60.40;;;;;;5092657;28;20598;-80
2022/04/20 09:28:40;;;;;;;2.40;1.50;;;14.70;60.40;;;;;;5093977;28;20036;-80
2022/04/20 09:31:07;;;;;;;2.22;1.60;;;14.80;60.40;;;;;;5094059;28;20125;-81
2022/04/20 09:33:45;;;;;;;2.28;1.65;;;14.90;60.30;;;;;;5095195;28;20032;-81
2022/04/20 09:36:13;;;;;;;2.50;1.70;;;15.00;60.30;;;;;;5094349;28;20112;-80
2022/04/20 09:38:41;;;;;;;2.67;1.55;;;15.10;60.20;;;;;;5062481;28;20119;-81
2022/04/20 09:41:15;;;;;;;2.05;1.60;;;15.20;60.20;;;;;;5058845;28;20040;-79
2022/04/20 09:43:40;;;;;;;2.05;1.80;;;15.30;60.10;;;;;;5092366;28;20032;-81
2022/04/20 09:49:11;;;;;;;2.13;1.58;;;15.40;60.10;;;;;;5094791;28;20047;-79
2022/04/20 09:51:38;;;;;;;1.60;1.42;;;15.60;60.10;;;;;;5093309;28;20099;-80
2022/04/20 09:54:04;;;;;;;2.05;1.63;;;15.60;59.90;;;;;;5074621;28;20028;-83
2022/04/20 09:56:31;;;;;;;2.20;1.80;;;15.70;59.90;;;;;;5094122;28;20020;-83
2022/04/20 09:59:03;;;;;;;2.60;1.70;;;15.80;60.00;;;;;;5074418;28;20082;-85
2022/04/20 10:01:35;;;;;;;2.17;1.70;;;15.90;59.90;;;;;;5083053;28;20031;-81
2022/04/20 10:04:05;;;;;;;2.20;1.73;;;16.00;59.80;;;;;;5076893;28;20024;-80
2022/04/20 10:06:32;;;;;;;1.58;1.45;;;16.10;59.80;;;;;;5084783;28;20103;-81
2022/04/20 10:08:58;;;;;;;1.77;1.60;;;16.20;59.80;;;;;;5094291;28;20039;-80
2022/04/20 10:11:25;;;;;;;2.13;1.77;;;16.30;59.80;;;;;;5093723;28;20465;-79
2022/04/20 10:16:46;;;;;;;2.08;1.60;;;16.40;59.60;;;;;;5092940;28;20142;-79
2022/04/20 10:19:13;;;;;;;2.15;1.80;;;16.60;59.50;;;;;;5093186;28;20036;-79
2022/04/20 10:21:50;;;;;;;1.50;1.40;;;16.70;59.50;;;;;;5095708;28;20081;-79
2022/04/20 10:24:18;;;;;;;1.70;1.55;;;16.70;59.50;;;;;;5095147;28;20028;-78
2022/04/20 10:26:48;;;;;;;1.83;1.50;;;16.80;59.40;;;;;;5091832;28;20388;-78
2022/04/20 10:29:28;;;;;;;1.95;1.50;;;16.90;59.40;;;;;;5095161;28;20118;-79
2022/04/20 10:32:04;;;;;;;1.83;1.60;;;17.10;59.50;;;;;;5094561;28;20032;-79
2022/04/20 10:34:31;;;;;;;2.25;2.00;;;17.10;59.40;;;;;;5075657;28;20082;-81
2022/04/20 10:37:17;;;;;;;1.70;1.52;;;17.20;59.40;;;;;;5076815;28;20047;-80
2022/04/20 10:39:55;;;;;;;1.85;1.45;;;17.30;59.40;;;;;;5071781;28;20473;-81
2022/04/20 10:42:22;;;;;;;1.60;1.50;;;17.50;59.50;;;;;;5066461;28;20032;-79
2022/04/20 10:45:04;;;;;;;1.83;1.40;;;17.50;59.50;;;;;;5057727;28;20016;-78
2022/04/20 10:47:45;;;;;;;1.45;1.35;;;17.60;59.60;;;;;;5091705;28;20047;-78
2022/04/20 10:50:22;;;;;;;1.65;1.40;;;17.70;59.40;;;;;;5089132;28;20032;-78
2022/04/20 10:53:05;;;;;;;2.45;1.60;;;17.80;59.30;;;;;;5090721;28;20024;-78
2022/04/20 10:55:51;;;;;;;2.22;1.65;;;17.90;59.20;;;;;;5090803;28;20085;-80
2022/04/20 10:58:18;;;;;;;1.60;1.50;;;18.00;59.20;;;;;;5091429;28;20035;-77
2022/04/20 11:00:44;;;;;;;2.22;1.42;;;18.10;59.00;;;;;;5085793;28;20032;-81
2022/04/20 11:03:11;;;;;;;1.70;1.60;;;18.20;59.00;;;;;;5088481;28;20020;-79
2022/04/20 11:05:57;;;;;;;1.48;1.30;;;18.30;58.90;;;;;;5092465;28;20024;-80
2022/04/20 11:08:27;;;;;;;1.50;1.40;;;18.40;58.90;;;;;;5092894;28;20393;-80
2022/04/20 11:19:52;;;;;;;2.22;1.60;;;18.80;58.80;;;;;;5090640;28;20039;-80
2022/04/20 11:22:23;;;;;;;2.03;1.50;;;18.90;58.80;;;;;;5039449;28;20036;-78
2022/04/20 11:25:02;;;;;;;1.85;1.50;;;18.90;58.80;;;;;;5054340;28;20033;-79
2022/04/20 11:27:35;;;;;;;2.00;1.50;;;19.00;58.80;;;;;;5085616;28;20111;-79
2022/04/20 11:30:04;;;;;;;2.90;1.60;;;19.10;58.80;;;;;;5068606;28;20504;-78
2022/04/20 11:32:31;;;;;;;1.55;1.45;;;19.20;58.80;;;;;;5070177;28;20024;-78
2022/04/20 11:35:11;;;;;;;1.83;1.42;;;19.20;58.70;;;;;;5069821;28;20553;-78
2022/04/20 11:37:39;;;;;;;2.35;1.60;;;19.30;58.70;;;;;;5087012;28;20389;-77
2022/04/20 11:40:15;;;;;;;1.92;1.52;;;19.40;58.70;;;;;;5087191;28;20115;-78
2022/04/20 11:43:03;;;;;;;2.17;1.52;;;19.50;58.70;;;;;;5066643;28;20086;-77
2022/04/20 11:45:32;;;;;;;1.75;1.58;;;19.50;58.60;;;;;;5088969;28;20527;-78
2022/04/20 11:47:59;;;;;;;2.10;1.63;;;19.60;58.60;;;;;;5089787;28;20122;-77
2022/04/20 11:50:39;;;;;;;1.63;1.52;;;19.70;58.60;;;;;;5075437;28;20047;-79
2022/04/20 11:53:05;;;;;;;1.85;1.42;;;19.70;58.60;;;;;;5089619;28;20092;-76
2022/04/20 11:55:49;;;;;;;1.85;1.60;;;19.80;58.60;;;;;;5090300;28;20035;-78
2022/04/20 11:58:15;;;;;;;1.77;1.50;;;19.80;58.60;;;;;;5091370;28;20028;-75
2022/04/20 12:00:43;;;;;;;1.40;1.30;;;19.90;58.80;;;;;;5089652;28;20032;-77
2022/04/20 12:03:09;;;;;;;1.55;1.38;;;19.90;58.70;;;;;;5091197;28;20035;-76
2022/04/20 12:05:35;;;;;;;1.98;1.48;;;20.00;58.70;;;;;;5070388;28;20020;-76
2022/04/20 12:08:01;;;;;;;2.25;1.48;;;20.10;58.80;;;;;;5078750;28;20036;-77
2022/04/20 12:10:27;;;;;;;1.50;1.30;;;20.10;58.80;;;;;;5073147;28;20658;-75
2022/04/20 12:12:53;;;;;;;1.83;1.58;;;20.20;58.80;;;;;;5072524;28;20032;-74
2022/04/20 12:15:20;;;;;;;1.65;1.48;;;20.20;58.70;;;;;;5089404;28;20440;-76
2022/04/20 12:17:47;;;;;;;2.20;1.50;;;20.30;58.70;;;;;;5072866;28;20067;-77
2022/04/20 12:20:12;;;;;;;2.10;1.52;;;20.30;58.60;;;;;;5088908;28;20392;-76
2022/04/20 12:22:40;;;;;;;2.53;1.77;;;20.30;58.40;;;;;;5073441;28;20032;-77
2022/04/20 12:25:07;;;;;;;1.63;1.52;;;20.40;58.50;;;;;;5089129;28;20316;-76
2022/04/20 12:27:53;;;;;;;1.70;1.50;;;20.40;58.40;;;;;;5091269;28;20104;-77
2022/04/20 12:30:45;;;;;;;1.85;1.42;;;20.50;58.50;;;;;;5090588;28;20059;-75
2022/04/20 12:33:31;;;;;;;2.20;1.50;;;20.50;58.50;;;;;;5070175;28;20225;-75
2022/04/20 12:36:11;;;;;;;2.10;1.52;;;20.50;58.40;;;;;;5070172;28;20395;-73
2022/04/20 12:38:48;;;;;;;1.85;1.45;;;20.60;58.30;;;;;;5085706;28;20025;-75
2022/04/20 12:41:47;;;;;;;1.92;1.58;;;20.60;58.20;;;;;;5086502;28;20028;-73
2022/04/20 12:44:37;;;;;;;1.60;1.40;;;20.70;58.40;;;;;;5072894;28;20059;-73
2022/04/20 12:47:06;;;;;;;1.67;1.48;;;20.70;58.30;;;;;;5075473;28;20016;-75
2022/04/20 12:49:32;;;;;;;2.83;1.85;;;20.70;58.30;;;;;;5089947;28;20036;-75
2022/04/20 12:52:15;;;;;;;2.50;1.70;;;20.70;58.30;;;;;;5067992;28;20035;-76
2022/04/20 12:54:58;;;;;;;2.30;1.60;;;20.80;58.40;;;;;;5086509;28;20540;-74
2022/04/20 13:03:04;;;;;;;1.40;1.30;;;20.90;58.10;;;;;;5090400;28;20028;-75
2022/04/20 13:05:31;;;;;;;2.15;1.50;;;20.90;58.00;;;;;;5091001;28;20115;-75
2022/04/20 13:07:57;;;;;;;1.75;1.42;;;21.00;58.10;;;;;;5071605;28;20057;-75
2022/04/20 13:10:23;;;;;;;2.70;1.60;;;21.00;58.00;;;;;;5072366;28;20127;-77
2022/04/20 13:12:50;;;;;;;2.20;1.50;;;21.00;58.00;;;;;;5070084;28;20047;-78
2022/04/20 13:15:17;;;;;;;2.08;1.50;;;21.00;58.70;;;;;;5088443;28;20029;-78
2022/04/20 13:17:43;;;;;;;2.25;1.63;;;21.10;58.10;;;;;;5067806;28;20049;-78
2022/04/20 13:20:09;;;;;;;1.50;1.30;;;21.10;58.00;;;;;;5088613;28;20035;-79
2022/04/20 13:22:34;;;;;;;1.48;1.38;;;21.10;58.00;;;;;;5070677;28;20039;-77
2022/04/20 13:27:56;;;;;;;1.50;1.40;;;21.20;58.00;;;;;;5071039;28;20067;-78
2022/04/20 13:30:27;;;;;;;2.47;1.52;;;21.20;57.90;;;;;;5069908;28;20103;-77
2022/04/20 13:32:57;;;;;;;2.28;1.58;;;21.20;57.90;;;;;;5068671;28;20035;-77
2022/04/20 13:35:24;;;;;;;1.48;1.30;;;21.20;57.90;;;;;;5068466;28;20024;-77
2022/04/20 13:37:50;;;;;;;1.80;1.52;;;21.30;57.90;;;;;;5086991;28;20043;-76
2022/04/20 13:40:20;;;;;;;2.05;1.60;;;21.30;58.00;;;;;;5084961;28;20039;-76
2022/04/20 13:42:46;;;;;;;1.45;1.33;;;21.30;58.60;;;;;;5091813;28;20036;-78
2022/04/20 13:45:12;;;;;;;3.28;1.50;;;21.30;58.00;;;;;;5074935;28;20460;-77
2022/04/20 13:47:38;;;;;;;1.67;1.35;;;21.30;58.10;;;;;;5091675;28;20047;-78
2022/04/20 13:50:06;;;;;;;1.90;1.38;;;21.30;58.10;;;;;;5062940;28;20425;-79
2022/04/20 13:52:37;;;;;;;2.25;1.38;;;21.30;58.20;;;;;;5071897;28;20497;-79
2022/04/20 13:55:04;;;;;;;1.30;1.17;;;21.30;58.20;;;;;;5097776;28;20477;-78
2022/04/20 13:57:30;;;;;;;1.90;1.40;;;21.30;58.30;;;;;;5091035;28;20174;-78
2022/04/20 13:59:56;;;;;;;1.40;1.30;;;21.30;58.30;;;;;;5091788;28;20039;-79
2022/04/20 14:02:23;;;;;;;1.60;1.40;;;21.30;58.30;;;;;;5092893;28;20403;-77
2022/04/20 14:04:50;;;;;;;1.63;1.50;;;21.30;58.30;;;;;;5071323;28;20536;-77